This is the latest recevied weather packets stored in our database for station/object KT1D-13. If no packets are shown the sender has not sent any weather packets the latest 10 day(s).
| Time | Temp. | Humidity | Pressure | Rain* | Wind** | Luminosity | Snow |
|---|---|---|---|---|---|---|---|
| 1778031318 | 19.44° C | 57% | 1009.2 hPa | 0 mm | - | 0 W/m² | - |
| 1778021117 | 22.78° C | 50% | 1006.6 hPa | 0 mm | - | 83 W/m² | - |
| 1778018117 | 22.78° C | 52% | 1006.5 hPa | 0 mm | - | 175 W/m² | - |
| 1778015738 | 23.89° C | 50% | 1006 hPa | 0 mm | - | 338 W/m² | - |
| 1778014518 | 24.44° C | 48% | 1005.9 hPa | 0 mm | - | 457 W/m² | - |
| 1778013319 | 25° C | 47% | 1005.8 hPa | 0 mm | - | 459 W/m² | - |
| 1778011519 | 25.56° C | 45% | 1005.7 hPa | 0 mm | - | 618 W/m² | - |
| 1778010320 | 25.56° C | 46% | 1005.7 hPa | 0 mm | - | 493 W/m² | - |
| 1778004318 | 26.67° C | 44% | 1006.9 hPa | 0 mm | - | 875 W/m² | - |
| 1778000719 | 25.56° C | 44% | 1007.8 hPa | 0 mm | - | 927 W/m² | - |
| 1777998319 | 23.89° C | 46% | 1008.6 hPa | 0 mm | - | 925 W/m² | - |
| 1777997137 | 23.89° C | 46% | 1008.9 hPa | 0 mm | - | 896 W/m² | - |
| 1777991721 | 20° C | 57% | 1009.5 hPa | 0 mm | - | 780 W/m² | - |
| 1777986323 | 17.22° C | 65% | 1009.6 hPa | 0 mm | - | 349 W/m² | - |
| 1777983918 | 15.56° C | 70% | 1009.5 hPa | 0 mm | - | 392 W/m² | - |
| 1777983317 | 15° C | 71% | 1009.5 hPa | 0 mm | - | 344 W/m² | - |
| 1777980918 | 13.89° C | 74% | 1009.4 hPa | 0 mm | - | 241 W/m² | - |
| 1777968341 | 11.67° C | 75% | 1009.4 hPa | 0 mm | - | 0 W/m² | - |
| 1777965322 | 12.22° C | 73% | 1009.7 hPa | 0 mm | - | 0 W/m² | - |
| 1777961717 | 12.22° C | 71% | 1009.8 hPa | 0 mm | - | 0 W/m² | - |
| 1777955719 | 13.33° C | 66% | 1010.2 hPa | 0 mm | - | 0 W/m² | - |
| 1777953319 | 13.33° C | 63% | 1010 hPa | 0 mm | - | 0 W/m² | - |
| 1777952119 | 13.89° C | 62% | 1009.9 hPa | 0 mm | - | 0 W/m² | - |
| 1777950920 | 14.44° C | 60% | 1009.8 hPa | 0 mm | - | 0 W/m² | - |
| 1777943721 | 16.11° C | 51% | 1009.4 hPa | 0 mm | - | 0 W/m² | - |
* Rain latest hour (hover to see other rain measurements)
** Current wind speed in m/s (hover to see current wind gust speed)